Time;durP1;ratioP1;P1;durP2;ratioP2;P2;SDS_P1;SDS_P2;PMS_P1;PMS_P2;Temp;Humidity;BMP_temperature;BMP_pressure;BME280_temperature;BME280_humidity;BME280_pressure;Samples;Min_cycle;Max_cycle;Signal;HPM_P1;HPM_P2
2022/02/06 00:00:19;;;;;;;4.83;1.93;;;;;;;3.20;77.00;99298.28;5016856;27;103811;-67
2022/02/06 00:02:49;;;;;;;4.40;1.77;;;;;;;3.30;76.70;99288.41;5018430;28;103191;-67
2022/02/06 00:05:19;;;;;;;2.50;1.60;;;;;;;3.38;76.88;99292.47;5012101;27;103769;-67
2022/02/06 00:07:48;;;;;;;2.40;1.83;;;;;;;3.45;76.06;99283.50;5012427;27;102715;-67
2022/02/06 00:10:17;;;;;;;4.37;1.80;;;;;;;3.36;76.50;99278.63;5016613;27;103217;-67
2022/02/06 00:12:45;;;;;;;3.27;1.60;;;;;;;3.34;76.53;99271.75;5010237;27;103189;-67
2022/02/06 00:15:13;;;;;;;4.33;1.80;;;;;;;3.16;77.06;99269.75;5013422;27;102719;-67
2022/02/06 00:17:41;;;;;;;4.63;2.00;;;;;;;3.18;77.16;99262.69;5015138;28;103886;-64
2022/02/06 00:20:11;;;;;;;4.87;1.73;;;;;;;3.21;77.46;99259.97;5012092;28;103214;-68
2022/02/06 00:22:46;;;;;;;3.37;1.67;;;;;;;3.06;77.09;99263.13;5011891;28;103312;-67
2022/02/06 00:25:22;;;;;;;5.20;1.50;;;;;;;3.12;77.26;99253.31;5012572;28;102752;-67
2022/02/06 00:28:03;;;;;;;4.23;1.77;;;;;;;3.24;77.08;99254.66;5015510;28;104077;-64
2022/02/06 00:30:37;;;;;;;5.90;1.70;;;;;;;3.39;76.99;99251.53;5014406;28;104463;-64
2022/02/06 00:33:12;;;;;;;6.37;2.30;;;;;;;3.32;76.50;99245.66;5009302;27;103183;-64
2022/02/06 00:36:04;;;;;;;4.70;1.80;;;;;;;3.25;77.13;99243.31;5011442;27;102721;-64
2022/02/06 00:39:01;;;;;;;6.37;3.20;;;;;;;3.26;77.75;99235.41;5014289;27;102822;-64
2022/02/06 00:41:25;;;;;;;3.67;2.40;;;;;;;3.26;76.93;99231.94;5012312;28;104032;-64
2022/02/06 00:43:55;;;;;;;6.30;2.83;;;;;;;3.29;77.17;99239.69;5009581;28;104240;-64
2022/02/06 00:46:23;;;;;;;4.50;2.20;;;;;;;3.23;76.88;99234.69;5013428;28;102638;-64
2022/02/06 00:48:55;;;;;;;3.57;1.90;;;;;;;3.26;77.25;99231.94;5010602;28;102665;-67
2022/02/06 00:51:30;;;;;;;4.40;1.87;;;;;;;3.26;77.77;99224.13;5008759;28;103431;-67
2022/02/06 00:54:00;;;;;;;5.37;1.80;;;;;;;3.30;77.03;99215.28;5014572;28;103217;-64
2022/02/06 00:56:30;;;;;;;2.00;1.80;;;;;;;3.24;77.21;99215.50;5009493;28;102754;-64
2022/02/06 00:58:58;;;;;;;6.20;2.10;;;;;;;3.11;77.55;99214.22;5009792;28;102744;-64
2022/02/06 01:01:26;;;;;;;6.27;2.33;;;;;;;3.32;77.39;99209.09;5013287;27;103704;-63
2022/02/06 01:03:56;;;;;;;3.83;1.80;;;;;;;3.27;78.18;99202.31;5013989;28;103451;-64
2022/02/06 01:06:25;;;;;;;2.73;1.37;;;;;;;3.43;77.91;99195.66;5010963;28;102615;-64
2022/02/06 01:08:53;;;;;;;6.87;1.90;;;;;;;3.41;76.71;99207.91;5016711;28;104293;-67
2022/02/06 01:11:25;;;;;;;3.73;1.70;;;;;;;3.49;77.20;99205.88;5014641;28;104233;-65
2022/02/06 01:14:05;;;;;;;3.83;1.77;;;;;;;3.52;76.40;99200.56;5013351;28;104209;-64
2022/02/06 01:16:37;;;;;;;3.93;1.83;;;;;;;3.52;76.73;99195.31;5012386;28;102563;-64
2022/02/06 01:19:10;;;;;;;3.13;1.73;;;;;;;3.45;76.82;99193.84;5014316;28;104003;-67
2022/02/06 01:21:47;;;;;;;3.83;1.70;;;;;;;3.37;77.08;99195.84;5015266;28;103867;-67
2022/02/06 01:24:19;;;;;;;3.93;1.80;;;;;;;3.40;77.27;99195.75;5015665;28;103110;-67
2022/02/06 01:26:52;;;;;;;3.93;1.70;;;;;;;3.50;76.92;99194.53;5014207;28;102653;-67
2022/02/06 01:29:32;;;;;;;4.67;1.80;;;;;;;3.49;77.31;99195.44;5016453;28;103971;-67
2022/02/06 01:32:04;;;;;;;2.00;1.40;;;;;;;3.51;77.43;99186.63;5013021;28;103405;-67
2022/02/06 01:34:40;;;;;;;2.83;1.97;;;;;;;3.56;76.59;99194.31;5016844;27;104029;-67
2022/02/06 01:37:17;;;;;;;4.60;2.07;;;;;;;3.60;76.99;99190.66;5014107;27;102774;-68
2022/02/06 01:40:00;;;;;;;2.57;1.40;;;;;;;3.59;76.92;99202.06;5016016;28;102634;-67
2022/02/06 01:42:34;;;;;;;2.40;1.13;;;;;;;3.63;77.43;99197.53;5018462;27;103263;-64
2022/02/06 02:02:10;;;;;;;3.73;1.30;;;;;;;3.68;76.49;99180.78;5015410;27;104292;-67
2022/02/06 02:05:02;;;;;;;3.23;1.63;;;;;;;3.72;76.32;99171.94;5013313;28;104333;-67
2022/02/06 02:07:48;;;;;;;2.73;1.33;;;;;;;3.76;76.33;99176.13;5014797;28;103186;-67
2022/02/06 02:10:49;;;;;;;4.90;1.60;;;;;;;3.81;76.38;99166.38;5013128;28;102732;-67
2022/02/06 02:13:36;;;;;;;2.17;1.20;;;;;;;3.87;75.99;99168.75;5015577;28;102625;-67
2022/02/06 02:25:08;;;;;;;2.07;1.07;;;;;;;3.93;74.68;99126.66;5018470;28;103786;-67
2022/02/06 02:27:53;;;;;;;3.27;1.20;;;;;;;3.97;74.91;99103.88;5020253;28;104193;-64
2022/02/06 02:30:45;;;;;;;3.50;2.03;;;;;;;4.03;74.54;99103.63;5012158;28;103227;-64
2022/02/06 02:47:18;;;;;;;3.83;1.17;;;;;;;4.18;74.25;99087.34;5015581;28;102713;-67
2022/02/06 02:49:52;;;;;;;3.43;1.37;;;;;;;4.22;73.87;99073.22;5017260;28;103206;-67
2022/02/06 02:55:17;;;;;;;3.50;1.60;;;;;;;4.17;74.41;99063.84;5008802;27;102813;-67
2022/02/06 02:57:50;;;;;;;4.73;1.50;;;;;;;4.18;74.15;99065.56;5017038;27;103432;-67
2022/02/06 03:00:45;;;;;;;4.73;1.30;;;;;;;4.16;74.27;99056.91;5012757;28;103156;-67
2022/02/06 03:03:15;;;;;;;5.17;1.30;;;;;;;4.19;74.28;99047.19;5006510;28;103164;-67
2022/02/06 03:05:45;;;;;;;4.47;1.40;;;;;;;4.20;73.92;99040.19;5012958;28;102583;-67
2022/02/06 03:08:12;;;;;;;3.77;1.17;;;;;;;4.29;73.78;99043.28;5014571;28;102721;-67
2022/02/06 03:10:42;;;;;;;5.80;1.43;;;;;;;4.28;73.98;99032.88;5009392;28;103697;-67
2022/02/06 03:13:14;;;;;;;5.53;1.30;;;;;;;4.21;74.25;99019.19;5015436;28;103192;-66
2022/02/06 03:15:46;;;;;;;4.40;1.53;;;;;;;4.27;73.51;99021.56;5018751;27;103008;-67
2022/02/06 03:18:18;;;;;;;6.43;1.40;;;;;;;4.27;74.14;99012.84;5016685;27;103982;-67
2022/02/06 03:20:46;;;;;;;2.77;1.20;;;;;;;4.30;73.92;99023.19;5012361;28;103685;-67
2022/02/06 03:23:15;;;;;;;5.57;1.47;;;;;;;4.31;74.04;99014.44;5014038;27;103264;-66
2022/02/06 03:25:50;;;;;;;6.93;1.77;;;;;;;4.31;73.97;99009.22;5017911;27;102648;-67
2022/02/06 03:28:18;;;;;;;5.13;1.40;;;;;;;4.30;74.10;99007.50;5012083;28;103658;-67
2022/02/06 03:30:46;;;;;;;2.70;1.50;;;;;;;4.33;74.02;99007.38;5012786;28;104184;-67
2022/02/06 03:33:14;;;;;;;2.90;1.17;;;;;;;4.36;73.64;99004.63;5012762;27;103200;-67
2022/02/06 03:35:44;;;;;;;3.40;1.03;;;;;;;4.38;73.43;99015.91;5016322;28;102596;-67
2022/02/06 03:38:15;;;;;;;2.87;1.00;;;;;;;4.42;73.73;99014.84;5014139;28;102654;-67
2022/02/06 03:40:52;;;;;;;3.20;1.43;;;;;;;4.39;73.54;99015.81;5015582;27;103961;-67
2022/02/06 03:43:26;;;;;;;3.87;1.60;;;;;;;4.38;74.06;99013.28;5009403;28;104235;-67
2022/02/06 03:45:58;;;;;;;3.53;1.40;;;;;;;4.39;73.93;99001.88;5009482;27;102534;-64
2022/02/06 03:48:32;;;;;;;2.73;1.27;;;;;;;4.41;73.65;99000.03;5013755;27;102742;-64
2022/02/06 03:51:06;;;;;;;3.77;1.20;;;;;;;4.43;73.17;98999.09;5011450;28;103204;-64
2022/02/06 03:53:34;;;;;;;4.20;1.87;;;;;;;4.48;73.17;98997.13;5012713;28;103244;-63
2022/02/06 03:56:04;;;;;;;4.77;1.70;;;;;;;4.52;73.10;98997.84;5015297;27;102967;-64
2022/02/06 03:58:32;;;;;;;3.80;1.53;;;;;;;4.56;72.67;98994.16;5015805;28;102760;-64
2022/02/06 04:01:00;;;;;;;3.87;1.93;;;;;;;4.52;73.05;98992.63;5013278;27;103954;-64
2022/02/06 04:03:28;;;;;;;4.43;1.07;;;;;;;4.59;72.72;98988.81;5011976;27;103179;-64
2022/02/06 04:05:57;;;;;;;3.73;1.10;;;;;;;4.57;72.32;98988.03;5016335;28;102514;-63
2022/02/06 04:08:27;;;;;;;2.77;1.30;;;;;;;4.64;72.65;98973.75;5014269;28;102762;-64
2022/02/06 04:10:58;;;;;;;2.60;0.90;;;;;;;4.60;72.23;98959.94;5010777;27;103210;-64
2022/02/06 04:13:30;;;;;;;3.90;1.57;;;;;;;4.65;72.25;98960.59;5007417;28;103216;-64
2022/02/06 04:16:00;;;;;;;3.63;1.13;;;;;;;4.67;71.83;98964.00;5011842;28;102584;-64
2022/02/06 04:18:36;;;;;;;6.93;1.60;;;;;;;4.67;71.79;98956.16;5015463;28;103553;-64
2022/02/06 04:21:06;;;;;;;4.73;1.47;;;;;;;4.73;71.82;98955.03;5013179;28;103245;-67
2022/02/06 04:23:34;;;;;;;4.67;1.30;;;;;;;4.76;71.14;98949.66;5010721;27;103235;-67
2022/02/06 04:26:02;;;;;;;2.60;1.37;;;;;;;4.79;71.88;98944.28;5010483;28;102907;-64
2022/02/06 04:28:35;;;;;;;3.87;1.10;;;;;;;4.82;71.41;98936.28;5013486;28;103999;-64
2022/02/06 04:31:04;;;;;;;4.23;1.20;;;;;;;4.83;71.31;98942.38;5011683;28;103516;-64
2022/02/06 04:33:32;;;;;;;3.57;1.40;;;;;;;4.82;71.18;98933.66;5009913;28;103264;-64
2022/02/06 04:36:03;;;;;;;3.53;1.50;;;;;;;4.87;71.07;98936.94;5012323;28;102550;-65
2022/02/06 04:38:46;;;;;;;1.83;1.00;;;;;;;4.89;71.39;98940.31;5012924;28;103441;-64
2022/02/06 04:41:46;;;;;;;5.60;1.80;;;;;;;4.93;70.88;98941.88;5011669;28;103737;-64
2022/02/06 04:50:45;;;;;;;4.03;1.00;;;;;;;4.88;70.87;98943.03;4979701;28;103799;-64
2022/02/06 05:15:38;;;;;;;3.53;1.30;;;;;;;4.97;70.93;98875.34;4991429;28;103761;-67
2022/02/06 05:18:48;;;;;;;4.20;1.40;;;;;;;4.97;71.08;98875.34;5014491;28;103179;-67
2022/02/06 05:24:34;;;;;;;3.00;1.13;;;;;;;4.97;71.05;98872.72;4984750;28;102909;-67
2022/02/06 05:27:16;;;;;;;3.00;0.90;;;;;;;4.97;71.62;98885.81;5016897;28;103210;-67
2022/02/06 05:29:51;;;;;;;5.27;1.40;;;;;;;5.00;71.54;98893.53;5015340;28;103183;-66
2022/02/06 05:32:24;;;;;;;2.50;1.10;;;;;;;4.95;71.82;98897.28;5017793;28;102815;-66
2022/02/06 05:34:53;;;;;;;2.80;1.50;;;;;;;4.98;71.82;98887.53;5013796;28;104004;-66
2022/02/06 05:37:25;;;;;;;2.03;1.27;;;;;;;4.96;71.62;98889.38;5017854;27;103910;-66
2022/02/06 05:39:53;;;;;;;2.33;1.53;;;;;;;4.92;72.08;98900.91;5015345;27;103286;-67
2022/02/06 05:42:21;;;;;;;5.03;1.40;;;;;;;4.96;71.81;98902.47;5015377;27;102625;-63
2022/02/06 05:44:54;;;;;;;2.90;1.33;;;;;;;4.99;71.43;98902.34;5016411;27;103576;-63
2022/02/06 05:47:23;;;;;;;4.70;1.90;;;;;;;5.01;71.52;98913.56;5018442;28;103813;-63
2022/02/06 05:49:53;;;;;;;5.87;1.50;;;;;;;5.05;71.66;98920.34;5011925;28;104156;-63
2022/02/06 05:52:23;;;;;;;3.20;1.20;;;;;;;5.04;71.81;98923.06;5013010;28;102597;-63
2022/02/06 05:54:52;;;;;;;5.07;1.60;;;;;;;5.06;71.80;98901.09;5016646;28;103602;-63
2022/02/06 05:57:22;;;;;;;4.40;1.50;;;;;;;5.07;71.72;98913.28;5016166;28;104230;-63
2022/02/06 05:59:49;;;;;;;8.20;1.93;;;;;;;5.10;71.91;98907.91;5015654;27;103191;-63
2022/02/06 06:02:18;;;;;;;6.27;1.27;;;;;;;5.08;71.83;98899.25;5016403;28;102519;-63
2022/02/06 06:04:46;;;;;;;4.93;1.37;;;;;;;5.13;71.41;98905.16;5012042;27;102661;-64
2022/02/06 06:07:15;;;;;;;5.20;1.37;;;;;;;5.10;71.88;98907.06;5014427;27;103734;-66
2022/02/06 06:09:45;;;;;;;4.23;1.40;;;;;;;5.06;72.16;98892.41;5017562;28;102990;-63
2022/02/06 06:12:14;;;;;;;5.53;1.43;;;;;;;5.10;72.28;98886.97;5020015;27;102962;-64
2022/02/06 06:14:44;;;;;;;2.13;1.23;;;;;;;5.10;72.26;98891.34;5012879;28;104374;-64
2022/02/06 06:17:12;;;;;;;4.67;1.50;;;;;;;5.11;72.18;98883.41;5015883;28;104034;-63
2022/02/06 06:19:44;;;;;;;4.37;1.77;;;;;;;5.11;72.36;98872.94;5014189;28;103081;-63
2022/02/06 06:22:13;;;;;;;4.27;1.27;;;;;;;5.13;72.33;98885.97;5015923;28;102667;-63
2022/02/06 06:24:44;;;;;;;5.23;1.50;;;;;;;5.08;72.59;98891.41;5014839;27;103839;-63
2022/02/06 06:27:13;;;;;;;2.93;1.23;;;;;;;5.13;72.34;98899.91;5017770;28;103580;-63
2022/02/06 06:29:41;;;;;;;4.47;1.40;;;;;;;5.08;72.88;98896.63;5018444;28;103184;-63
2022/02/06 06:32:09;;;;;;;3.90;1.53;;;;;;;5.12;72.78;98892.97;5013563;28;103177;-63
2022/02/06 06:34:37;;;;;;;3.37;1.47;;;;;;;5.15;72.96;98886.72;5016021;28;103345;-63
2022/02/06 06:37:05;;;;;;;7.63;1.83;;;;;;;5.10;72.91;98881.72;5015383;27;103626;-63
2022/02/06 06:39:39;;;;;;;4.47;1.70;;;;;;;5.15;72.95;98866.63;5014230;28;104141;-63
2022/02/06 06:42:09;;;;;;;4.07;1.50;;;;;;;5.14;73.15;98856.22;5015192;27;102742;-63
2022/02/06 06:44:38;;;;;;;3.33;1.00;;;;;;;5.18;72.98;98845.53;5012966;28;102698;-63
2022/02/06 06:47:08;;;;;;;3.90;1.30;;;;;;;5.16;72.88;98854.41;5014905;28;104314;-63
2022/02/06 06:49:37;;;;;;;4.20;1.60;;;;;;;5.17;72.87;98851.69;5015871;28;103076;-63
2022/02/06 06:52:06;;;;;;;3.57;1.13;;;;;;;5.22;72.78;98854.94;5012816;28;102640;-63
2022/02/06 06:54:38;;;;;;;4.17;1.50;;;;;;;5.18;72.85;98857.78;5014264;28;104120;-62
2022/02/06 06:57:14;;;;;;;4.57;1.13;;;;;;;5.27;72.71;98849.47;5017554;28;103111;-62
2022/02/06 07:00:19;;;;;;;8.00;1.83;;;;;;;5.21;72.74;98847.16;5015560;28;103306;-63
2022/02/06 07:02:47;;;;;;;3.97;1.30;;;;;;;5.23;72.74;98848.78;5016011;28;103046;-62
2022/02/06 07:05:15;;;;;;;3.40;1.37;;;;;;;5.27;72.60;98841.63;5014934;28;102756;-62
2022/02/06 07:07:43;;;;;;;6.37;1.50;;;;;;;5.32;72.63;98841.38;5014216;27;103208;-62
2022/02/06 07:10:11;;;;;;;2.47;1.17;;;;;;;5.37;72.58;98836.75;5013964;28;103186;-63
2022/02/06 07:12:41;;;;;;;3.63;1.50;;;;;;;5.35;72.63;98838.63;5015845;28;102673;-63
2022/02/06 07:15:11;;;;;;;4.27;1.90;;;;;;;5.42;72.43;98845.28;5014992;28;102701;-62
2022/02/06 07:17:40;;;;;;;3.40;1.20;;;;;;;5.39;72.29;98829.69;5007286;28;104050;-62
2022/02/06 07:20:09;;;;;;;2.63;1.47;;;;;;;5.42;72.50;98824.31;5014907;27;103342;-63
2022/02/06 07:22:39;;;;;;;4.17;1.70;;;;;;;5.44;72.52;98811.97;5011104;28;102648;-62
2022/02/06 07:25:08;;;;;;;3.03;1.33;;;;;;;5.45;72.22;98811.03;5001887;27;102643;-62
2022/02/06 07:27:39;;;;;;;3.53;1.50;;;;;;;5.50;72.14;98820.34;5007176;27;103852;-63
2022/02/06 07:30:10;;;;;;;5.37;1.90;;;;;;;5.52;71.77;98805.44;5005532;27;103219;-63
2022/02/06 07:32:39;;;;;;;2.40;1.10;;;;;;;5.61;72.71;98807.59;5007368;28;102582;-63
2022/02/06 07:35:09;;;;;;;3.77;1.30;;;;;;;5.59;72.00;98804.19;5005697;28;103037;-62
2022/02/06 07:37:44;;;;;;;4.40;1.70;;;;;;;5.63;72.14;98802.25;5003662;28;104034;-62
2022/02/06 07:40:13;;;;;;;3.17;1.30;;;;;;;5.61;72.34;98772.66;5005082;28;103197;-63
2022/02/06 07:42:41;;;;;;;4.20;1.17;;;;;;;5.63;72.01;98770.81;5004094;28;102729;-62
2022/02/06 07:45:17;;;;;;;4.30;1.40;;;;;;;5.63;72.06;98776.03;5008004;28;103940;-63
2022/02/06 07:47:46;;;;;;;4.13;1.30;;;;;;;5.68;72.54;98768.78;5005123;28;103223;-62
2022/02/06 07:50:15;;;;;;;4.27;1.20;;;;;;;5.69;72.63;98767.88;5002100;27;103226;-63
2022/02/06 07:52:44;;;;;;;3.87;1.43;;;;;;;5.63;72.07;98765.56;5003026;27;102812;-62
2022/02/06 07:55:12;;;;;;;4.77;1.37;;;;;;;5.76;72.62;98756.13;5003941;28;104055;-63
2022/02/06 07:57:40;;;;;;;3.00;1.17;;;;;;;5.69;72.27;98754.78;5009328;27;103346;-63
2022/02/06 08:00:10;;;;;;;2.60;1.20;;;;;;;5.72;72.60;98752.84;5012566;27;103239;-62
2022/02/06 08:02:40;;;;;;;4.23;1.30;;;;;;;5.80;72.35;98748.03;5011542;27;102566;-63
2022/02/06 08:05:10;;;;;;;5.90;1.70;;;;;;;5.84;72.31;98725.09;5010079;28;103974;-63
2022/02/06 08:07:39;;;;;;;3.80;1.40;;;;;;;5.74;72.38;98722.16;5010090;28;104178;-63
2022/02/06 08:10:08;;;;;;;7.80;1.40;;;;;;;5.84;72.50;98712.00;5011639;28;103032;-59
2022/02/06 08:12:45;;;;;;;4.90;1.60;;;;;;;5.87;71.96;98706.63;5010544;27;102625;-62
2022/02/06 08:15:13;;;;;;;5.10;1.33;;;;;;;5.83;71.65;98705.94;5011687;28;102701;-63
2022/02/06 08:17:42;;;;;;;4.20;1.50;;;;;;;5.98;72.10;98709.53;5009549;28;103648;-63
2022/02/06 08:20:14;;;;;;;5.03;1.50;;;;;;;6.01;71.44;98698.88;5012924;28;104047;-63
2022/02/06 08:22:43;;;;;;;4.93;1.23;;;;;;;6.03;71.55;98697.03;5010204;28;102652;-62
2022/02/06 08:25:13;;;;;;;4.47;1.40;;;;;;;6.10;71.63;98692.28;5014949;28;102768;-61
2022/02/06 08:27:42;;;;;;;8.73;1.57;;;;;;;6.06;71.42;98688.16;5012083;28;103492;-63
2022/02/06 08:30:13;;;;;;;3.80;1.10;;;;;;;6.11;71.13;98697.47;5009882;28;104317;-61
2022/02/06 08:32:43;;;;;;;3.57;1.47;;;;;;;6.12;70.77;98691.25;5013951;28;102592;-61
2022/02/06 08:35:12;;;;;;;3.67;1.23;;;;;;;6.18;70.56;98685.69;5014474;27;104108;-64
2022/02/06 08:37:42;;;;;;;6.73;1.70;;;;;;;6.25;70.52;98686.22;5010755;28;103372;-66
2022/02/06 08:40:16;;;;;;;4.83;1.53;;;;;;;6.24;70.39;98684.50;5013777;28;103320;-66
2022/02/06 08:42:46;;;;;;;2.97;1.20;;;;;;;6.37;70.70;98680.28;5011032;28;102701;-62
2022/02/06 08:45:15;;;;;;;3.37;1.53;;;;;;;6.42;70.42;98667.75;5015046;28;102716;-62
2022/02/06 08:47:47;;;;;;;3.13;1.37;;;;;;;6.41;69.92;98672.16;5012231;28;103295;-62
2022/02/06 08:50:15;;;;;;;4.40;1.33;;;;;;;6.67;69.73;98672.47;5013230;28;103209;-62
2022/02/06 08:52:45;;;;;;;4.47;1.20;;;;;;;6.50;69.52;98660.28;5014680;28;102717;-62
2022/02/06 08:55:15;;;;;;;4.53;1.77;;;;;;;6.55;69.64;98674.00;5016669;28;102710;-63
2022/02/06 08:57:47;;;;;;;4.00;1.20;;;;;;;6.51;69.76;98661.16;5013409;28;103209;-62
2022/02/06 09:00:18;;;;;;;5.33;1.53;;;;;;;6.56;69.71;98672.22;5009168;28;104460;-62
2022/02/06 09:02:50;;;;;;;6.43;1.53;;;;;;;6.55;69.67;98655.63;5013667;27;102572;-62
2022/02/06 09:05:19;;;;;;;6.70;1.30;;;;;;;6.64;69.40;98673.50;5013015;28;103893;-61
2022/02/06 09:07:48;;;;;;;2.50;1.13;;;;;;;6.59;68.97;98664.19;5009337;28;104123;-61
2022/02/06 09:10:19;;;;;;;2.17;1.10;;;;;;;6.67;69.35;98664.59;5016146;27;104174;-65
2022/02/06 09:12:51;;;;;;;4.97;1.20;;;;;;;6.62;68.96;98661.38;5008353;28;102739;-64
2022/02/06 09:15:20;;;;;;;5.13;1.30;;;;;;;6.68;69.24;98666.28;5012395;28;103843;-64
2022/02/06 09:17:50;;;;;;;5.50;1.40;;;;;;;6.71;69.28;98658.25;5007713;27;103762;-64
2022/02/06 09:20:19;;;;;;;4.13;1.10;;;;;;;6.69;69.17;98663.56;5015100;28;103230;-64
2022/02/06 09:22:47;;;;;;;4.83;1.20;;;;;;;6.65;69.28;98648.09;5010670;28;102645;-64
2022/02/06 09:25:16;;;;;;;3.40;1.40;;;;;;;6.68;69.84;98646.09;5014091;28;103562;-64
2022/02/06 09:27:44;;;;;;;2.70;1.03;;;;;;;6.64;70.18;98641.13;5010443;28;103239;-64
2022/02/06 09:30:15;;;;;;;4.07;1.23;;;;;;;6.57;70.64;98645.06;5013110;28;103177;-61
2022/02/06 09:35:15;;;;;;;3.13;1.07;;;;;;;6.65;70.59;98627.09;5014384;27;103877;-67
2022/02/06 09:37:43;;;;;;;6.60;1.50;;;;;;;6.60;70.76;98629.97;5013114;28;103253;-67
2022/02/06 09:40:15;;;;;;;2.37;1.20;;;;;;;6.61;71.15;98625.56;5013641;27;102613;-67
2022/02/06 09:42:48;;;;;;;4.10;1.37;;;;;;;6.67;71.11;98614.72;5018343;28;102686;-67
2022/02/06 09:45:16;;;;;;;6.13;1.73;;;;;;;6.66;70.57;98608.59;5015695;28;104103;-67
2022/02/06 09:47:49;;;;;;;5.20;1.47;;;;;;;6.70;70.70;98620.63;5015603;28;103683;-69
2022/02/06 09:50:19;;;;;;;2.43;1.20;;;;;;;6.82;70.39;98601.53;5017784;28;103201;-67
2022/02/06 09:52:50;;;;;;;3.10;1.43;;;;;;;6.84;69.85;98601.44;5011532;28;102812;-67
2022/02/06 09:55:20;;;;;;;5.57;1.50;;;;;;;6.89;69.78;98608.13;5012167;27;102743;-71
2022/02/06 09:57:55;;;;;;;3.30;1.10;;;;;;;6.90;69.63;98593.22;5015421;28;102952;-71
2022/02/06 10:00:28;;;;;;;7.03;1.30;;;;;;;7.05;69.43;98583.56;5017164;28;103303;-71
2022/02/06 10:03:03;;;;;;;5.60;1.40;;;;;;;7.06;69.56;98570.34;5015620;28;102527;-71
2022/02/06 10:05:35;;;;;;;5.67;1.33;;;;;;;7.11;69.32;98557.78;5014001;28;103946;-71
2022/02/06 10:08:13;;;;;;;3.83;1.20;;;;;;;7.13;69.06;98555.88;5014393;27;102962;-67
2022/02/06 10:10:49;;;;;;;9.10;1.43;;;;;;;7.24;69.34;98563.97;5014779;28;104183;-67
2022/02/06 10:13:20;;;;;;;2.77;1.30;;;;;;;7.29;68.97;98543.53;5012891;28;102551;-68
2022/02/06 10:15:50;;;;;;;2.53;1.23;;;;;;;7.30;69.01;98545.19;5014526;27;102708;-68
2022/02/06 10:18:18;;;;;;;4.70;1.50;;;;;;;7.27;69.17;98540.13;5003253;27;104029;-67
2022/02/06 10:20:50;;;;;;;3.70;1.27;;;;;;;7.19;69.15;98537.13;5010612;27;103250;-67
2022/02/06 10:23:23;;;;;;;2.10;1.10;;;;;;;7.31;69.22;98517.97;5005608;27;102622;-67
2022/02/06 10:26:05;;;;;;;5.17;1.53;;;;;;;7.35;69.26;98526.53;5013382;28;102694;-67
2022/02/06 10:28:37;;;;;;;5.13;1.50;;;;;;;7.51;69.17;98530.75;5017946;28;103242;-71
2022/02/06 10:31:06;;;;;;;2.97;1.50;;;;;;;7.35;68.62;98509.00;5016722;27;103204;-71
2022/02/06 10:33:46;;;;;;;3.70;1.30;;;;;;;7.45;69.03;98510.09;5015541;28;102631;-71
2022/02/06 10:36:17;;;;;;;3.13;1.40;;;;;;;7.48;68.71;98503.78;5012736;28;103869;-71
2022/02/06 10:38:48;;;;;;;2.97;1.13;;;;;;;7.56;68.49;98507.63;5012494;28;104004;-67
2022/02/06 10:41:22;;;;;;;4.00;1.13;;;;;;;7.74;67.84;98491.63;5012078;27;103921;-68
2022/02/06 10:43:58;;;;;;;3.60;1.10;;;;;;;7.72;67.92;98491.72;5011109;28;102650;-72
2022/02/06 10:46:28;;;;;;;2.80;1.27;;;;;;;7.83;68.30;98493.69;5017288;28;103626;-71
2022/02/06 10:49:01;;;;;;;2.57;1.40;;;;;;;7.91;67.70;98467.72;5011901;28;103310;-71
2022/02/06 10:51:38;;;;;;;3.43;1.20;;;;;;;7.77;67.58;98462.50;5013138;27;103204;-71
2022/02/06 10:54:09;;;;;;;3.43;1.20;;;;;;;7.87;67.38;98450.44;5012422;28;102676;-71
2022/02/06 10:56:40;;;;;;;5.23;1.60;;;;;;;7.98;67.94;98450.56;5012550;28;103204;-71
2022/02/06 10:59:09;;;;;;;3.47;1.17;;;;;;;8.05;66.80;98439.56;5009527;28;104570;-67
2022/02/06 11:01:40;;;;;;;3.10;1.20;;;;;;;7.93;68.47;98434.25;5012045;28;103276;-67
2022/02/06 11:04:16;;;;;;;2.13;1.00;;;;;;;7.99;67.25;98425.97;5016148;27;103155;-68
2022/02/06 11:06:53;;;;;;;2.37;1.03;;;;;;;7.97;68.17;98418.16;5013485;27;103818;-67
2022/02/06 11:09:25;;;;;;;3.73;1.20;;;;;;;8.02;67.65;98402.09;5014766;28;103231;-67
2022/02/06 11:11:54;;;;;;;5.93;1.20;;;;;;;8.04;67.27;98381.78;5014611;27;103334;-67
2022/02/06 11:14:25;;;;;;;4.33;1.30;;;;;;;8.18;67.33;98405.38;5011595;28;102650;-67
2022/02/06 11:16:53;;;;;;;3.13;1.13;;;;;;;8.14;66.93;98388.94;5012406;28;102956;-67
2022/02/06 11:19:21;;;;;;;3.57;1.20;;;;;;;8.30;67.08;98388.78;5008565;28;104236;-67
2022/02/06 11:22:08;;;;;;;3.47;1.23;;;;;;;8.35;67.53;98378.78;5010996;28;103271;-67
2022/02/06 11:24:38;;;;;;;3.20;1.00;;;;;;;8.41;66.76;98381.00;5009417;27;104347;-67
2022/02/06 11:27:07;;;;;;;2.80;1.10;;;;;;;8.24;66.96;98375.16;5013275;28;102820;-67
2022/02/06 11:29:36;;;;;;;3.00;1.20;;;;;;;8.24;67.09;98373.38;5006683;27;103907;-67
2022/02/06 11:32:05;;;;;;;2.97;0.90;;;;;;;8.12;67.83;98372.41;5007662;28;103114;-71
2022/02/06 11:34:35;;;;;;;2.33;1.13;;;;;;;8.23;69.47;98366.44;5012388;27;102720;-71
2022/02/06 11:46:14;;;;;;;2.67;1.07;;;;;;;8.10;71.29;98331.38;5015514;28;102742;-71
2022/02/06 11:48:45;;;;;;;2.80;1.20;;;;;;;8.12;70.92;98326.84;5012752;28;102779;-71
2022/02/06 11:51:17;;;;;;;2.50;1.20;;;;;;;8.22;70.44;98327.91;5015875;28;103470;-71
2022/02/06 11:53:47;;;;;;;3.50;1.30;;;;;;;8.20;71.14;98314.00;5012717;28;104379;-71
2022/02/06 11:56:33;;;;;;;4.10;1.40;;;;;;;8.15;71.60;98310.84;5007934;28;102622;-67
2022/02/06 11:59:10;;;;;;;2.40;0.90;;;;;;;8.11;70.92;98304.13;5008595;28;103560;-67
2022/02/06 12:01:40;;;;;;;1.70;0.80;;;;;;;8.12;71.30;98305.78;5011193;27;103249;-67
2022/02/06 12:04:19;;;;;;;2.23;1.00;;;;;;;8.35;70.26;98286.66;5008248;27;104177;-71
2022/02/06 12:06:52;;;;;;;4.07;1.13;;;;;;;8.44;70.24;98288.66;5015226;28;103049;-61
2022/02/06 12:09:24;;;;;;;2.87;1.10;;;;;;;8.21;69.74;98272.75;5014439;28;103579;-62
2022/02/06 12:12:12;;;;;;;2.17;1.00;;;;;;;8.15;69.68;98274.00;5011997;28;103890;-73
2022/02/06 12:14:46;;;;;;;1.90;0.90;;;;;;;8.25;69.74;98259.28;5009034;28;103235;-69
2022/02/06 12:17:19;;;;;;;3.07;0.90;;;;;;;8.34;68.70;98245.50;5014012;27;102708;-63
2022/02/06 12:20:06;;;;;;;2.37;1.00;;;;;;;8.34;69.07;98248.13;5012704;27;103983;-65
2022/02/06 12:22:40;;;;;;;1.23;0.80;;;;;;;8.37;68.80;98226.84;5010858;28;104800;-63
2022/02/06 12:25:25;;;;;;;1.53;0.73;;;;;;;8.37;69.17;98212.84;5014747;28;103229;-74
2022/02/06 12:28:32;;;;;;;1.57;0.90;;;;;;;8.49;68.92;98215.47;5016304;28;103532;-74
2022/02/06 12:31:26;;;;;;;5.67;1.53;;;;;;;8.47;68.10;98206.84;5008411;28;103653;-73
2022/02/06 12:33:59;;;;;;;2.67;0.90;;;;;;;8.47;68.39;98200.72;5009713;28;104065;-69
2022/02/06 12:39:40;;;;;;;4.53;0.80;;;;;;;8.50;67.56;98193.47;4968661;28;102846;-73
2022/02/06 12:42:11;;;;;;;3.37;0.90;;;;;;;8.61;68.06;98184.78;4969573;28;104167;-66
2022/02/06 12:44:40;;;;;;;1.73;0.87;;;;;;;8.86;67.45;98173.28;4988717;27;103377;-71
2022/02/06 12:47:13;;;;;;;1.83;1.00;;;;;;;8.83;67.35;98176.16;5009578;28;103210;-70
2022/02/06 12:49:42;;;;;;;2.37;0.87;;;;;;;8.80;67.74;98186.91;5007725;27;102752;-71
2022/02/06 12:52:10;;;;;;;1.90;0.77;;;;;;;8.51;68.35;98175.84;5011254;28;104117;-71
2022/02/06 12:54:38;;;;;;;2.47;0.90;;;;;;;8.36;68.72;98172.56;5010293;28;103232;-71
2022/02/06 12:57:08;;;;;;;1.00;0.90;;;;;;;8.12;69.55;98161.94;5009920;28;103182;-71
2022/02/06 12:59:39;;;;;;;2.30;0.90;;;;;;;8.10;69.87;98173.50;5007335;28;102744;-70
2022/02/06 13:02:08;;;;;;;1.47;0.87;;;;;;;8.31;69.99;98156.22;5009454;28;103680;-71
2022/02/06 13:04:42;;;;;;;0.83;0.63;;;;;;;8.16;70.44;98133.63;5009785;28;103901;-70
2022/02/06 13:07:12;;;;;;;1.97;0.80;;;;;;;8.26;70.39;98133.78;5012787;28;102635;-71
2022/02/06 13:09:42;;;;;;;1.27;0.70;;;;;;;8.14;71.18;98157.38;5009932;28;102698;-71
2022/02/06 13:12:24;;;;;;;1.30;1.00;;;;;;;7.97;71.65;98133.25;5012708;27;103601;-68
2022/02/06 13:15:09;;;;;;;2.20;0.77;;;;;;;8.05;71.49;98136.16;5015872;27;103828;-68
2022/02/06 13:17:54;;;;;;;1.83;0.77;;;;;;;8.10;72.00;98128.78;5014015;28;103294;-68
2022/02/06 13:20:32;;;;;;;2.13;0.60;;;;;;;8.02;73.13;98120.59;5012906;28;102718;-68
2022/02/06 13:23:15;;;;;;;2.50;0.87;;;;;;;8.00;72.46;98114.63;5015343;28;103622;-68
2022/02/06 13:25:53;;;;;;;1.57;0.90;;;;;;;7.89;73.20;98119.75;5010198;28;104260;-68
2022/02/06 13:28:44;;;;;;;0.97;0.67;;;;;;;7.92;72.97;98106.41;5012566;28;103186;-69